Terminal Aerodrome Forecast
Issued by NWS

Home | Current Version | Previous Version | Graphics & Text | Print | Product List | Glossary On
Versions: 1 2 3 4 5 6 7 8 9 10 11 12 13 14 15 16 17 18 19 20
000
FTUS43 KBIS 191400 AAB
TAFJMS
TAF AMD
KJMS 191413Z 1914/2012 20012KT P6SM VCSH OVC090
     FM191600 24013G21KT P6SM BKN110
     FM191900 26015G25KT P6SM SCT250
     FM200500 30011KT P6SM SCT070=

USA.gov is the U.S. government's official web portal to all federal, state and local government web resources and services.